Hlavní strana
METAR-TAF:

METAR-TAF

Letiště :

Luni

Sarzana, Itálie

zeměpisná šířka: 44-05N, zeměpisná délka: 009-59E, výška: 9 m

Aktuální stav počasí

Zpráva byla vytvořena před 14 hodinami a 8 minutami, v 13:55 UTC
Jihojihovýchodní vítr 5 kt
Teplota 32°C
Vlhkost vzduchu 18%
Tlak 1012 hPa
Viditelnost 10 km a více
Žádná oblačnost pod 1500 m, nevyskytují se cumulonimby.

METAR: LIQW 151355Z 15005KT CAVOK 32/05 Q1012 RMK SKC VIS MIN 9999 WIND THR14 /////KT BLU

Čas: 06:03 (04:03 UTC)

Předpověď počasí

Zpráva byla vytvořena před 20 hodinami a 3 minutami, v 08:00 UTC
Předpověď platná od 15 v 09 UTC do 15 v 18 UTC
Severozápadní vítr 5 kt
Viditelnost 10 km a více
Žádná oblačnost pod 1500 m, nevyskytují se cumulonimby.

TAF: LIQW 150800Z 1509/1518 32005KT CAVOK

Stav a předpovědi počasí z více než 4 000 letišť (zprávy METAR a TAF).

Červené a žluté tečky na mapě představují dostupné meteorologické stanice.

Když kurzor umístíte na tečku, zobrazí se název stanice.

Pak kliknutím zobrazíte stav a předpověď počasí.

Chcete-li změnit mapu, kliknutím na zelené tlačítko se znaménkem +mapu přiblížíte, kliknutím na zelené tlačítko se znaménkem – mapu oddálíte a kliknutím na zelené šipky přejdete na sousední mapy.


METAR-TAF: